createdAt,value
2018-03-08T00:00:02.163Z,993.76
2018-03-08T00:01:02.111Z,993.74
2018-03-08T00:02:02.061Z,993.74
2018-03-08T00:03:02.009Z,993.71
2018-03-08T00:04:01.958Z,993.71
2018-03-08T00:05:01.908Z,993.76
2018-03-08T00:06:01.856Z,993.70
2018-03-08T00:07:01.804Z,993.71
2018-03-08T00:08:01.753Z,993.71
2018-03-08T00:09:01.702Z,993.76
2018-03-08T00:10:01.651Z,993.70
2018-03-08T00:11:01.599Z,993.73
2018-03-08T00:12:01.548Z,993.73
2018-03-08T00:13:01.503Z,993.73
2018-03-08T00:14:01.447Z,993.73
2018-03-08T00:15:01.395Z,993.69
2018-03-08T00:16:01.344Z,993.71
2018-03-08T00:17:01.292Z,993.73
2018-03-08T00:18:01.243Z,993.71
2018-03-08T00:19:01.189Z,993.68
2018-03-08T00:20:01.139Z,993.68
2018-03-08T00:21:01.088Z,993.68
2018-03-08T00:22:01.037Z,993.70
2018-03-08T00:23:00.985Z,993.71
2018-03-08T00:24:00.933Z,993.71
2018-03-08T00:25:00.883Z,993.71
2018-03-08T00:26:00.832Z,993.70
2018-03-08T00:27:00.782Z,993.69
2018-03-08T00:28:00.728Z,993.66
2018-03-08T00:29:00.680Z,993.67
2018-03-08T00:30:00.627Z,993.66
2018-03-08T00:31:00.575Z,993.69
2018-03-08T00:32:00.524Z,993.67
2018-03-08T00:33:00.473Z,993.68
2018-03-08T00:34:00.422Z,993.69
2018-03-08T00:35:00.371Z,993.69
2018-03-08T00:36:00.322Z,993.74
2018-03-08T00:37:00.272Z,993.79
2018-03-08T00:38:00.217Z,993.78
2018-03-08T00:39:00.166Z,993.82
2018-03-08T00:40:00.116Z,993.84
2018-03-08T00:41:00.065Z,993.87
2018-03-08T00:42:00.014Z,993.84
2018-03-08T00:42:59.962Z,993.82
2018-03-08T00:43:59.911Z,993.84
2018-03-08T00:44:59.860Z,993.78
2018-03-08T00:45:59.810Z,993.78
2018-03-08T00:46:59.757Z,993.81
2018-03-08T00:47:59.710Z,993.81
2018-03-08T00:48:59.656Z,993.81
2018-03-08T00:49:59.605Z,993.77
2018-03-08T00:50:59.552Z,993.79
2018-03-08T00:51:59.502Z,993.74
2018-03-08T00:52:59.451Z,993.77
2018-03-08T00:53:59.400Z,993.74
2018-03-08T00:54:59.350Z,993.77
2018-03-08T00:55:59.298Z,993.78
2018-03-08T00:56:59.250Z,993.76
2018-03-08T00:57:59.196Z,993.76
2018-03-08T00:58:59.145Z,993.76
2018-03-08T00:59:59.098Z,993.76
2018-03-08T01:00:59.044Z,993.77
2018-03-08T01:01:58.992Z,993.80
2018-03-08T01:02:58.939Z,993.76
2018-03-08T01:03:58.888Z,993.76
2018-03-08T01:04:58.838Z,993.80
2018-03-08T01:05:58.788Z,993.78
2018-03-08T01:06:58.735Z,993.78
2018-03-08T01:07:58.685Z,993.79
2018-03-08T01:08:58.634Z,993.80
2018-03-08T01:09:58.583Z,993.79
2018-03-08T01:10:58.531Z,993.78
2018-03-08T01:11:58.480Z,993.75
2018-03-08T01:12:58.430Z,993.80
2018-03-08T01:13:58.379Z,993.84
2018-03-08T01:14:58.328Z,993.83
2018-03-08T01:15:58.276Z,993.80
2018-03-08T01:16:58.275Z,993.83
2018-03-08T01:17:58.175Z,993.77
2018-03-08T01:18:58.123Z,993.73
2018-03-08T01:19:58.076Z,993.76
2018-03-08T01:20:58.022Z,993.77
2018-03-08T01:21:57.972Z,993.79
2018-03-08T01:22:57.935Z,993.76
2018-03-08T01:23:57.868Z,993.73
2018-03-08T01:24:57.818Z,993.74
2018-03-08T01:25:57.769Z,993.70
2018-03-08T01:26:57.715Z,993.72
2018-03-08T01:27:57.664Z,993.72
2018-03-08T01:28:57.614Z,993.76
2018-03-08T01:29:57.564Z,993.75
2018-03-08T01:30:57.511Z,993.74
2018-03-08T01:31:57.461Z,993.80
2018-03-08T01:32:57.410Z,993.78
2018-03-08T01:33:57.360Z,993.79
2018-03-08T01:34:57.308Z,993.81
2018-03-08T01:35:57.257Z,993.80
2018-03-08T01:36:57.206Z,993.77
2018-03-08T01:37:57.156Z,993.77
2018-03-08T01:38:57.104Z,993.75
2018-03-08T01:39:57.059Z,993.74
2018-03-08T01:40:57.003Z,993.73
2018-03-08T01:41:56.952Z,993.74
2018-03-08T01:42:56.905Z,993.74
2018-03-08T01:43:56.850Z,993.75
2018-03-08T01:44:56.799Z,993.76
2018-03-08T01:45:56.750Z,993.73
2018-03-08T01:46:56.697Z,993.74
2018-03-08T01:47:56.646Z,993.72
2018-03-08T01:48:56.596Z,993.74
2018-03-08T01:49:56.545Z,993.70
2018-03-08T01:50:56.493Z,993.72
2018-03-08T01:51:56.444Z,993.72
2018-03-08T01:52:56.401Z,993.68
2018-03-08T01:53:56.341Z,993.67
2018-03-08T01:54:56.290Z,993.68
2018-03-08T01:55:56.244Z,993.72
2018-03-08T01:56:56.211Z,993.68
2018-03-08T01:57:56.139Z,993.72
2018-03-08T01:58:56.087Z,993.71
2018-03-08T01:59:56.036Z,993.68
2018-03-08T02:00:55.986Z,993.69
2018-03-08T02:01:55.935Z,993.71
2018-03-08T02:02:55.890Z,993.69
2018-03-08T02:03:55.833Z,993.70
2018-03-08T02:04:55.782Z,993.70
2018-03-08T02:05:55.732Z,993.73
2018-03-08T02:06:55.681Z,993.71
2018-03-08T02:07:55.633Z,993.69
2018-03-08T02:08:55.580Z,993.73
2018-03-08T02:09:55.529Z,993.72
2018-03-08T02:10:55.478Z,993.74
2018-03-08T02:11:55.427Z,993.74
2018-03-08T02:12:55.376Z,993.74
2018-03-08T02:13:55.326Z,993.75
2018-03-08T02:14:55.274Z,993.75
2018-03-08T02:15:55.225Z,993.74
2018-03-08T02:16:55.274Z,993.75
2018-03-08T02:17:55.122Z,993.75
2018-03-08T02:18:55.073Z,993.76
2018-03-08T02:19:55.021Z,993.78
2018-03-08T02:20:54.970Z,993.79
2018-03-08T02:21:54.919Z,993.77
2018-03-08T02:22:54.868Z,993.74
2018-03-08T02:23:54.820Z,993.73
2018-03-08T02:24:54.770Z,993.72
2018-03-08T02:25:54.717Z,993.74
2018-03-08T02:26:54.665Z,993.75
2018-03-08T02:27:54.619Z,993.77
2018-03-08T02:28:54.565Z,993.80
2018-03-08T02:29:54.514Z,993.81
2018-03-08T02:30:54.463Z,993.82
2018-03-08T02:31:54.412Z,993.84
2018-03-08T02:32:54.362Z,993.82
2018-03-08T02:33:54.311Z,993.82
2018-03-08T02:34:54.260Z,993.81
2018-03-08T02:35:54.210Z,993.79
2018-03-08T02:36:54.159Z,993.80
2018-03-08T02:37:54.109Z,993.82
2018-03-08T02:38:54.060Z,993.80
2018-03-08T02:39:54.007Z,993.83
2018-03-08T02:40:53.957Z,993.82
2018-03-08T02:41:53.906Z,993.85
2018-03-08T02:42:53.856Z,993.82
2018-03-08T02:43:53.805Z,993.84
2018-03-08T02:44:53.763Z,993.85
2018-03-08T02:45:53.712Z,993.90
2018-03-08T02:46:53.654Z,993.90
2018-03-08T02:47:53.603Z,993.87
2018-03-08T02:48:53.551Z,993.90
2018-03-08T02:49:53.501Z,993.88
2018-03-08T02:50:53.452Z,993.85
2018-03-08T02:51:53.399Z,993.91
2018-03-08T02:52:53.349Z,993.87
2018-03-08T02:53:53.356Z,993.86
2018-03-08T02:54:53.250Z,993.86
2018-03-08T02:55:53.204Z,993.87
2018-03-08T02:56:53.147Z,993.86
2018-03-08T02:57:53.097Z,993.86
2018-03-08T02:58:53.047Z,993.87
2018-03-08T02:59:52.996Z,993.93
2018-03-08T03:00:52.947Z,993.95
2018-03-08T03:01:52.895Z,993.94
2018-03-08T03:02:52.843Z,993.97
2018-03-08T03:03:52.795Z,993.97
2018-03-08T03:04:52.743Z,994.03
2018-03-08T03:05:52.693Z,993.96
2018-03-08T03:06:52.641Z,994.05
2018-03-08T03:07:52.590Z,994.03
2018-03-08T03:08:52.541Z,994.08
2018-03-08T03:09:52.508Z,994.05
2018-03-08T03:10:52.439Z,994.09
2018-03-08T03:11:52.389Z,994.07
2018-03-08T03:12:52.388Z,994.09
2018-03-08T03:13:52.287Z,994.10
2018-03-08T03:14:52.236Z,994.11
2018-03-08T03:15:52.186Z,994.16
2018-03-08T03:16:52.136Z,994.10
2018-03-08T03:17:52.085Z,994.18
2018-03-08T03:18:52.034Z,994.19
2018-03-08T03:19:51.984Z,994.17
2018-03-08T03:20:51.933Z,994.19
2018-03-08T03:21:51.883Z,994.16
2018-03-08T03:22:51.831Z,994.15
2018-03-08T03:23:51.784Z,994.16
2018-03-08T03:24:51.731Z,994.12
2018-03-08T03:25:51.680Z,994.12
2018-03-08T03:26:51.628Z,994.14
2018-03-08T03:27:51.579Z,994.09
2018-03-08T03:28:51.528Z,994.06
2018-03-08T03:29:51.477Z,994.11
2018-03-08T03:30:51.426Z,994.06
2018-03-08T03:31:51.375Z,994.07
2018-03-08T03:32:51.325Z,994.05
2018-03-08T03:33:51.275Z,994.04
2018-03-08T03:34:51.223Z,994.05
2018-03-08T03:35:51.172Z,994.07
2018-03-08T03:36:51.171Z,994.08
2018-03-08T03:37:51.070Z,994.12
2018-03-08T03:38:51.020Z,994.08
2018-03-08T03:39:50.969Z,994.09
2018-03-08T03:40:50.918Z,994.10
2018-03-08T03:41:50.867Z,994.11
2018-03-08T03:42:50.815Z,994.13
2018-03-08T03:43:50.765Z,994.14
2018-03-08T03:44:50.715Z,994.17
2018-03-08T03:45:50.664Z,994.16
2018-03-08T03:46:50.612Z,994.21
2018-03-08T03:47:50.561Z,994.19
2018-03-08T03:48:50.511Z,994.15
2018-03-08T03:49:50.460Z,994.21
2018-03-08T03:50:50.408Z,994.17
2018-03-08T03:51:50.360Z,994.20
2018-03-08T03:52:50.308Z,994.15
2018-03-08T03:53:50.259Z,994.17
2018-03-08T03:54:50.205Z,994.14
2018-03-08T03:55:50.154Z,994.11
2018-03-08T03:56:50.105Z,994.17
2018-03-08T03:57:50.054Z,994.14
2018-03-08T03:58:50.003Z,994.17
2018-03-08T03:59:49.952Z,994.16
2018-03-08T04:00:49.902Z,994.21
2018-03-08T04:01:49.852Z,994.21
2018-03-08T04:02:49.800Z,994.25
2018-03-08T04:03:49.752Z,994.23
2018-03-08T04:04:49.703Z,994.25
2018-03-08T04:05:49.648Z,994.24
2018-03-08T04:06:49.598Z,994.26
2018-03-08T04:07:49.547Z,994.28
2018-03-08T04:08:49.495Z,994.29
2018-03-08T04:09:49.445Z,994.28
2018-03-08T04:10:49.393Z,994.33
2018-03-08T04:11:49.350Z,994.30
2018-03-08T04:12:49.292Z,994.28
2018-03-08T04:13:49.241Z,994.28
2018-03-08T04:14:49.192Z,994.26
2018-03-08T04:15:49.145Z,994.27
2018-03-08T04:16:49.087Z,994.29
2018-03-08T04:17:49.036Z,994.26
2018-03-08T04:18:48.984Z,994.28
2018-03-08T04:19:48.933Z,994.28
2018-03-08T04:20:48.882Z,994.32
2018-03-08T04:21:48.831Z,994.36
2018-03-08T04:22:48.779Z,994.36
2018-03-08T04:23:48.728Z,994.33
2018-03-08T04:24:48.676Z,994.34
2018-03-08T04:25:48.628Z,994.34
2018-03-08T04:26:48.574Z,994.32
2018-03-08T04:27:48.523Z,994.31
2018-03-08T04:28:48.472Z,994.29
2018-03-08T04:29:48.420Z,994.27
2018-03-08T04:30:48.368Z,994.23
2018-03-08T04:31:48.317Z,994.28
2018-03-08T04:32:48.267Z,994.29
2018-03-08T04:33:48.214Z,994.36
2018-03-08T04:34:48.162Z,994.37
2018-03-08T04:35:48.111Z,994.34
2018-03-08T04:36:48.063Z,994.29
2018-03-08T04:37:48.011Z,994.24
2018-03-08T04:38:47.959Z,994.26
2018-03-08T04:39:47.906Z,994.28
2018-03-08T04:40:47.854Z,994.26
2018-03-08T04:41:47.803Z,994.26
2018-03-08T04:42:47.750Z,994.24
2018-03-08T04:43:47.699Z,994.26
2018-03-08T04:44:47.648Z,994.24
2018-03-08T04:45:47.597Z,994.29
2018-03-08T04:46:47.545Z,994.28
2018-03-08T04:47:47.494Z,994.30
2018-03-08T04:48:47.443Z,994.29
2018-03-08T04:49:47.393Z,994.30
2018-03-08T04:50:47.339Z,994.33
2018-03-08T04:51:47.288Z,994.29
2018-03-08T04:52:47.237Z,994.29
2018-03-08T04:53:47.186Z,994.30
2018-03-08T04:54:47.141Z,994.32
2018-03-08T04:55:47.083Z,994.34
2018-03-08T04:56:47.031Z,994.36
2018-03-08T04:57:46.980Z,994.35
2018-03-08T04:58:46.932Z,994.38
2018-03-08T04:59:46.880Z,994.41
2018-03-08T05:00:46.826Z,994.38
2018-03-08T05:01:46.775Z,994.38
2018-03-08T05:02:46.722Z,994.38
2018-03-08T05:03:46.672Z,994.41
2018-03-08T05:04:46.621Z,994.46
2018-03-08T05:05:46.573Z,994.49
2018-03-08T05:06:46.518Z,994.41
2018-03-08T05:07:46.468Z,994.49
2018-03-08T05:08:46.417Z,994.51
2018-03-08T05:09:46.366Z,994.46
2018-03-08T05:10:46.314Z,994.44
2018-03-08T05:11:46.263Z,994.49
2018-03-08T05:12:46.212Z,994.45
2018-03-08T05:13:46.161Z,994.50
2018-03-08T05:14:46.109Z,994.49
2018-03-08T05:15:46.058Z,994.53
2018-03-08T05:16:46.008Z,994.60
2018-03-08T05:17:45.959Z,994.56
2018-03-08T05:18:45.908Z,994.57
2018-03-08T05:19:45.854Z,994.57
2018-03-08T05:20:45.803Z,994.56
2018-03-08T05:21:45.752Z,994.59
2018-03-08T05:22:45.727Z,994.57
2018-03-08T05:23:45.676Z,994.61
2018-03-08T05:24:45.598Z,994.58
2018-03-08T05:25:45.547Z,994.60
2018-03-08T05:26:45.495Z,994.59
2018-03-08T05:27:45.444Z,994.56
2018-03-08T05:28:45.397Z,994.57
2018-03-08T05:29:45.343Z,994.60
2018-03-08T05:30:45.291Z,994.56
2018-03-08T05:31:45.242Z,994.53
2018-03-08T05:32:45.196Z,994.50
2018-03-08T05:33:45.142Z,994.50
2018-03-08T05:34:45.087Z,994.49
2018-03-08T05:35:45.035Z,994.53
2018-03-08T05:36:44.985Z,994.52
2018-03-08T05:37:44.934Z,994.50
2018-03-08T05:38:44.882Z,994.49
2018-03-08T05:39:44.833Z,994.54
2018-03-08T05:40:44.780Z,994.51
2018-03-08T05:41:44.729Z,994.54
2018-03-08T05:42:44.678Z,994.58
2018-03-08T05:43:44.627Z,994.60
2018-03-08T05:44:44.576Z,994.62
2018-03-08T05:45:44.526Z,994.59
2018-03-08T05:46:44.474Z,994.57
2018-03-08T05:47:44.426Z,994.62
2018-03-08T05:48:44.372Z,994.63
2018-03-08T05:49:44.321Z,994.64
2018-03-08T05:50:44.270Z,994.63
2018-03-08T05:51:44.218Z,994.64
2018-03-08T05:52:44.168Z,994.66
2018-03-08T05:53:44.118Z,994.63
2018-03-08T05:54:44.065Z,994.62
2018-03-08T05:55:44.017Z,994.69
2018-03-08T05:56:43.964Z,994.67
2018-03-08T05:57:43.926Z,994.70
2018-03-08T05:58:43.862Z,994.70
2018-03-08T05:59:43.811Z,994.72
2018-03-08T06:00:43.760Z,994.75
2018-03-08T06:01:43.710Z,994.76
2018-03-08T06:02:43.659Z,994.76
2018-03-08T06:03:43.608Z,994.78
2018-03-08T06:04:43.557Z,994.79
2018-03-08T06:05:43.508Z,994.82
2018-03-08T06:06:43.455Z,994.83
2018-03-08T06:07:43.408Z,994.82
2018-03-08T06:08:43.354Z,994.83
2018-03-08T06:09:43.305Z,994.86
2018-03-08T06:10:43.253Z,994.90
2018-03-08T06:11:43.202Z,994.90
2018-03-08T06:12:43.155Z,994.91
2018-03-08T06:13:43.101Z,994.89
2018-03-08T06:14:43.050Z,994.92
2018-03-08T06:15:42.999Z,994.92
2018-03-08T06:16:42.949Z,994.90
2018-03-08T06:17:42.899Z,994.95
2018-03-08T06:18:42.848Z,994.99
2018-03-08T06:19:42.804Z,994.98
2018-03-08T06:20:42.747Z,995.00
2018-03-08T06:21:42.696Z,995.01
2018-03-08T06:22:42.646Z,995.03
2018-03-08T06:23:42.596Z,995.05
2018-03-08T06:24:42.545Z,995.04
2018-03-08T06:25:42.495Z,995.05
2018-03-08T06:26:42.444Z,995.13
2018-03-08T06:27:42.394Z,995.09
2018-03-08T06:28:42.343Z,995.17
2018-03-08T06:29:42.294Z,995.14
2018-03-08T06:30:42.242Z,995.16
2018-03-08T06:31:42.193Z,995.19
2018-03-08T06:32:42.143Z,995.18
2018-03-08T06:33:42.094Z,995.24
2018-03-08T06:34:42.041Z,995.19
2018-03-08T06:35:41.991Z,995.27
2018-03-08T06:36:41.940Z,995.28
2018-03-08T06:37:41.891Z,995.31
2018-03-08T06:38:41.890Z,995.31
2018-03-08T06:39:41.790Z,995.31
2018-03-08T06:40:41.740Z,995.32
2018-03-08T06:41:41.691Z,995.37
2018-03-08T06:42:41.642Z,995.31
2018-03-08T06:43:41.591Z,995.36
2018-03-08T06:44:41.541Z,995.38
2018-03-08T06:45:41.490Z,995.41
2018-03-08T06:46:41.442Z,995.43
2018-03-08T06:47:41.389Z,995.45
2018-03-08T06:48:41.339Z,995.45
2018-03-08T06:49:41.289Z,995.48
2018-03-08T06:50:41.238Z,995.46
2018-03-08T06:51:41.189Z,995.51
2018-03-08T06:52:41.138Z,995.51
2018-03-08T06:53:41.089Z,995.51
2018-03-08T06:54:41.038Z,995.51
2018-03-08T06:55:40.988Z,995.52
2018-03-08T06:56:40.938Z,995.58
2018-03-08T06:57:40.887Z,995.57
2018-03-08T06:58:40.850Z,995.55
2018-03-08T06:59:40.787Z,995.56
2018-03-08T07:00:40.740Z,995.59
2018-03-08T07:01:40.688Z,995.62
2018-03-08T07:02:40.636Z,995.64
2018-03-08T07:03:40.587Z,995.64
2018-03-08T07:04:40.537Z,995.64
2018-03-08T07:05:40.495Z,995.64
2018-03-08T07:06:40.436Z,995.68
2018-03-08T07:07:40.386Z,995.67
2018-03-08T07:08:40.336Z,995.70
2018-03-08T07:09:40.287Z,995.72
2018-03-08T07:10:40.236Z,995.76
2018-03-08T07:11:40.186Z,995.72
2018-03-08T07:12:40.136Z,995.76
2018-03-08T07:13:40.087Z,995.75
2018-03-08T07:14:40.036Z,995.77
2018-03-08T07:15:39.987Z,995.78
2018-03-08T07:16:39.936Z,995.79
2018-03-08T07:17:39.887Z,995.80
2018-03-08T07:18:39.840Z,995.82
2018-03-08T07:19:39.789Z,995.81
2018-03-08T07:20:39.736Z,995.84
2018-03-08T07:21:39.687Z,995.86
2018-03-08T07:22:39.636Z,995.86
2018-03-08T07:23:39.587Z,995.86
2018-03-08T07:24:39.544Z,995.87
2018-03-08T07:25:39.488Z,995.88
2018-03-08T07:26:39.436Z,995.91
2018-03-08T07:27:39.388Z,995.88
2018-03-08T07:28:39.342Z,995.91
2018-03-08T07:29:39.288Z,995.89
2018-03-08T07:30:39.238Z,995.90
2018-03-08T07:31:39.189Z,995.90
2018-03-08T07:32:39.140Z,995.93
2018-03-08T07:33:39.090Z,995.91
2018-03-08T07:34:39.042Z,995.97
2018-03-08T07:35:38.996Z,996.01
2018-03-08T07:36:38.941Z,996.01
2018-03-08T07:37:38.892Z,996.03
2018-03-08T07:38:38.841Z,995.98
2018-03-08T07:39:38.792Z,996.02
2018-03-08T07:40:38.742Z,996.03
2018-03-08T07:41:38.693Z,996.03
2018-03-08T07:42:38.642Z,996.08
2018-03-08T07:43:38.597Z,996.01
2018-03-08T07:44:38.544Z,996.04
2018-03-08T07:45:38.494Z,996.05
2018-03-08T07:46:38.487Z,996.04
2018-03-08T07:47:38.394Z,996.08
2018-03-08T07:48:38.345Z,996.11
2018-03-08T07:49:38.296Z,996.10
2018-03-08T07:50:38.245Z,996.08
2018-03-08T07:51:38.197Z,996.10
2018-03-08T07:52:38.146Z,996.15
2018-03-08T07:53:38.102Z,996.16
2018-03-08T07:54:38.047Z,996.13
2018-03-08T07:55:37.997Z,996.16
2018-03-08T07:56:37.949Z,996.19
2018-03-08T07:57:37.904Z,996.19
2018-03-08T07:58:37.849Z,996.19
2018-03-08T07:59:37.800Z,996.19
2018-03-08T08:00:37.751Z,996.21
2018-03-08T08:01:37.701Z,996.24
2018-03-08T08:02:37.651Z,996.25
2018-03-08T08:03:37.601Z,996.26
2018-03-08T08:04:37.552Z,996.25
2018-03-08T08:05:37.503Z,996.27
2018-03-08T08:06:37.451Z,996.26
2018-03-08T08:07:37.403Z,996.31
2018-03-08T08:08:37.354Z,996.34
2018-03-08T08:09:37.305Z,996.32
2018-03-08T08:10:37.254Z,996.36
2018-03-08T08:11:37.208Z,996.41
2018-03-08T08:12:37.155Z,996.41
2018-03-08T08:13:37.106Z,996.39
2018-03-08T08:14:37.060Z,996.40
2018-03-08T08:15:37.006Z,996.38
2018-03-08T08:16:36.956Z,996.46
2018-03-08T08:17:36.907Z,996.43
2018-03-08T08:18:36.859Z,996.46
2018-03-08T08:19:36.807Z,996.43
2018-03-08T08:20:36.757Z,996.42
2018-03-08T08:21:36.707Z,996.44
2018-03-08T08:22:36.657Z,996.42
2018-03-08T08:23:36.607Z,996.43
2018-03-08T08:24:36.558Z,996.38
2018-03-08T08:25:36.507Z,996.43
2018-03-08T08:26:36.457Z,996.42
2018-03-08T08:27:36.407Z,996.47
2018-03-08T08:28:36.358Z,996.50
2018-03-08T08:29:36.308Z,996.49
2018-03-08T08:30:36.257Z,996.54
2018-03-08T08:31:36.211Z,996.54
2018-03-08T08:32:36.158Z,996.56
2018-03-08T08:33:36.107Z,996.55
2018-03-08T08:34:36.057Z,996.56
2018-03-08T08:35:36.014Z,996.58
2018-03-08T08:36:35.959Z,996.59
2018-03-08T08:37:35.909Z,996.65
2018-03-08T08:38:35.858Z,996.66
2018-03-08T08:39:35.808Z,996.67
2018-03-08T08:40:35.759Z,996.73
2018-03-08T08:41:35.710Z,996.69
2018-03-08T08:42:35.659Z,996.71
2018-03-08T08:43:35.609Z,996.74
2018-03-08T08:44:35.564Z,996.74
2018-03-08T08:45:35.516Z,996.72
2018-03-08T08:46:35.462Z,996.76
2018-03-08T08:47:35.413Z,996.77
2018-03-08T08:48:35.362Z,996.78
2018-03-08T08:49:35.312Z,996.82
2018-03-08T08:50:35.261Z,996.81
2018-03-08T08:51:35.212Z,996.82
2018-03-08T08:52:35.162Z,996.87
2018-03-08T08:53:35.112Z,996.83
2018-03-08T08:54:35.076Z,996.84
2018-03-08T08:55:35.013Z,996.87
2018-03-08T08:56:34.964Z,996.89
2018-03-08T08:57:34.914Z,996.94
2018-03-08T08:58:34.864Z,996.89
2018-03-08T08:59:34.821Z,996.94
2018-03-08T09:00:34.765Z,996.94
2018-03-08T09:01:34.714Z,996.96
2018-03-08T09:02:34.665Z,996.96
2018-03-08T09:03:34.615Z,996.93
2018-03-08T09:04:34.566Z,997.00
2018-03-08T09:05:34.516Z,996.98
2018-03-08T09:06:34.466Z,997.01
2018-03-08T09:07:34.431Z,997.00
2018-03-08T09:08:34.367Z,997.10
2018-03-08T09:09:34.318Z,996.99
2018-03-08T09:10:34.267Z,997.05
2018-03-08T09:11:34.217Z,997.04
2018-03-08T09:12:34.168Z,997.11
2018-03-08T09:13:34.117Z,997.06
2018-03-08T09:14:34.069Z,997.08
2018-03-08T09:15:34.020Z,997.11
2018-03-08T09:16:33.969Z,997.05
2018-03-08T09:17:33.920Z,997.14
2018-03-08T09:18:33.869Z,997.19
2018-03-08T09:19:33.819Z,997.17
2018-03-08T09:20:33.770Z,997.17
2018-03-08T09:21:33.720Z,997.22
2018-03-08T09:22:33.671Z,997.24
2018-03-08T09:23:33.620Z,997.18
2018-03-08T09:24:33.569Z,997.17
2018-03-08T09:25:33.522Z,997.21
2018-03-08T09:26:33.571Z,997.22
2018-03-08T09:27:33.419Z,997.15
2018-03-08T09:28:33.371Z,997.21
2018-03-08T09:29:33.321Z,997.23
2018-03-08T09:30:33.270Z,997.19
2018-03-08T09:31:33.221Z,997.28
2018-03-08T09:32:33.171Z,997.25
2018-03-08T09:33:33.124Z,997.28
2018-03-08T09:34:33.071Z,997.31
2018-03-08T09:35:33.021Z,997.29
2018-03-08T09:36:32.971Z,997.33
2018-03-08T09:37:32.921Z,997.29
2018-03-08T09:38:32.871Z,997.26
2018-03-08T09:39:32.820Z,997.24
2018-03-08T09:40:32.775Z,997.26
2018-03-08T09:41:32.722Z,997.27
2018-03-08T09:42:32.671Z,997.28
2018-03-08T09:43:32.621Z,997.26
2018-03-08T09:44:32.573Z,997.31
2018-03-08T09:45:32.522Z,997.28
2018-03-08T09:46:32.470Z,997.27
2018-03-08T09:47:32.421Z,997.27
2018-03-08T09:48:32.422Z,997.31
2018-03-08T09:49:32.322Z,997.32
2018-03-08T09:50:32.273Z,997.32
2018-03-08T09:51:32.222Z,997.33
2018-03-08T09:52:32.172Z,997.31
2018-03-08T09:53:32.122Z,997.31
2018-03-08T09:54:32.072Z,997.35
2018-03-08T09:55:32.025Z,997.37
2018-03-08T09:56:31.975Z,997.40
2018-03-08T09:57:31.922Z,997.37
2018-03-08T09:58:31.872Z,997.45
2018-03-08T09:59:31.872Z,997.42
2018-03-08T10:00:31.774Z,997.42
2018-03-08T10:01:31.724Z,997.46
2018-03-08T10:02:31.672Z,997.45
2018-03-08T10:03:31.623Z,997.45
2018-03-08T10:04:31.624Z,997.43
2018-03-08T10:05:31.547Z,997.48
2018-03-08T10:06:31.474Z,997.45
2018-03-08T10:07:31.424Z,997.48
2018-03-08T10:08:31.376Z,997.48
2018-03-08T10:09:31.325Z,997.47
2018-03-08T10:10:31.281Z,997.49
2018-03-08T10:11:31.239Z,997.49
2018-03-08T10:12:31.176Z,997.57
2018-03-08T10:13:31.126Z,997.54
2018-03-08T10:14:31.076Z,997.55
2018-03-08T10:15:31.024Z,997.64
2018-03-08T10:16:30.977Z,997.54
2018-03-08T10:17:30.927Z,997.52
2018-03-08T10:18:30.879Z,997.57
2018-03-08T10:19:30.828Z,997.58
2018-03-08T10:20:30.777Z,997.55
2018-03-08T10:21:44.517Z,997.60
2018-03-08T10:22:30.677Z,997.58
2018-03-08T10:23:30.627Z,997.63
2018-03-08T10:24:30.578Z,997.67
2018-03-08T10:25:30.529Z,997.60
2018-03-08T10:26:30.478Z,997.67
2018-03-08T10:27:30.428Z,997.66
2018-03-08T10:28:30.379Z,997.69
2018-03-08T10:29:30.333Z,997.66
2018-03-08T10:30:30.279Z,997.68
2018-03-08T10:31:30.229Z,997.70
2018-03-08T10:32:30.180Z,997.66
2018-03-08T10:33:30.128Z,997.70
2018-03-08T10:34:30.084Z,997.74
2018-03-08T10:35:30.180Z,997.73
2018-03-08T10:36:29.983Z,997.74
2018-03-08T10:37:29.930Z,997.78
2018-03-08T10:38:29.889Z,997.80
2018-03-08T10:39:29.832Z,997.77
2018-03-08T10:43:29.675Z,997.86
2018-03-08T10:44:29.581Z,997.85
2018-03-08T10:45:29.533Z,997.91
2018-03-08T10:46:29.482Z,997.88
2018-03-08T10:47:29.432Z,997.91
2018-03-08T10:48:29.383Z,997.97
2018-03-08T10:49:29.333Z,997.97
2018-03-08T10:50:29.283Z,997.99
2018-03-08T10:51:29.233Z,997.99
2018-03-08T10:52:29.184Z,998.00
2018-03-08T10:53:29.134Z,997.99
2018-03-08T10:54:29.084Z,998.02
2018-03-08T10:55:29.034Z,998.05
2018-03-08T10:56:28.985Z,998.04
2018-03-08T10:57:28.935Z,998.02
2018-03-08T10:58:28.884Z,998.09
2018-03-08T10:59:28.836Z,998.08
2018-03-08T11:00:28.791Z,998.08
2018-03-08T11:01:28.737Z,998.10
2018-03-08T11:02:28.690Z,998.07
2018-03-08T11:03:28.638Z,998.15
2018-03-08T11:04:28.588Z,998.08
2018-03-08T11:05:28.539Z,998.12
2018-03-08T11:06:28.489Z,998.16
2018-03-08T11:07:28.438Z,998.12
2018-03-08T11:08:28.402Z,998.13
2018-03-08T11:09:28.340Z,998.12
2018-03-08T11:10:28.290Z,998.14
2018-03-08T11:11:28.241Z,998.20
2018-03-08T11:12:28.193Z,998.28
2018-03-08T11:13:28.144Z,998.24
2018-03-08T11:14:28.097Z,998.21
2018-03-08T11:15:28.044Z,998.17
2018-03-08T11:16:27.996Z,998.18
2018-03-08T11:17:27.949Z,998.17
2018-03-08T11:18:27.901Z,998.19
2018-03-08T11:19:27.847Z,998.19
2018-03-08T11:20:27.800Z,998.16
2018-03-08T11:21:27.751Z,998.25
2018-03-08T11:22:27.701Z,998.23
2018-03-08T11:23:27.652Z,998.24
2018-03-08T11:24:27.605Z,998.27
2018-03-08T11:25:27.555Z,998.24
2018-03-08T11:26:27.504Z,998.30
2018-03-08T11:27:27.457Z,998.29
2018-03-08T11:28:27.408Z,998.34
2018-03-08T11:29:27.360Z,998.32
2018-03-08T11:30:27.327Z,998.28
2018-03-08T11:31:27.265Z,998.32
2018-03-08T11:32:27.214Z,998.32
2018-03-08T11:33:27.166Z,998.32
2018-03-08T11:34:27.117Z,998.32
2018-03-08T11:35:27.070Z,998.31
2018-03-08T11:36:27.020Z,998.31
2018-03-08T11:37:26.974Z,998.36
2018-03-08T11:38:26.925Z,998.35
2018-03-08T11:39:26.877Z,998.37
2018-03-08T11:40:26.828Z,998.34
2018-03-08T11:41:26.782Z,998.34
2018-03-08T11:42:26.732Z,998.35
2018-03-08T11:43:26.699Z,998.44
2018-03-08T11:44:26.639Z,998.48
2018-03-08T11:45:26.591Z,998.48
2018-03-08T11:46:26.543Z,998.47
2018-03-08T11:47:26.495Z,998.45
2018-03-08T11:48:26.447Z,998.48
2018-03-08T11:49:26.401Z,998.40
2018-03-08T11:50:26.353Z,998.40
2018-03-08T11:51:26.309Z,998.45
2018-03-08T11:52:26.259Z,998.35
2018-03-08T11:53:26.213Z,998.30
2018-03-08T11:54:26.165Z,998.26
2018-03-08T11:55:26.119Z,998.34
2018-03-08T11:56:26.073Z,998.36
2018-03-08T11:57:26.026Z,998.41
2018-03-08T11:58:25.979Z,998.43
2018-03-08T11:59:25.932Z,998.35
2018-03-08T12:00:25.886Z,998.38
2018-03-08T12:01:25.839Z,998.42
2018-03-08T12:02:25.791Z,998.38
2018-03-08T12:03:25.746Z,998.39
2018-03-08T12:04:25.699Z,998.45
2018-03-08T12:05:25.653Z,998.44
2018-03-08T12:06:25.607Z,998.47
2018-03-08T12:07:25.559Z,998.48
2018-03-08T12:08:25.517Z,998.53
2018-03-08T12:09:25.468Z,998.49
2018-03-08T12:10:25.421Z,998.49
2018-03-08T12:11:25.375Z,998.44
2018-03-08T12:12:25.329Z,998.46
2018-03-08T12:13:25.283Z,998.48
2018-03-08T12:14:25.236Z,998.46
2018-03-08T12:15:25.189Z,998.47
2018-03-08T12:16:25.143Z,998.49
2018-03-08T12:17:25.098Z,998.47
2018-03-08T12:18:25.052Z,998.51
2018-03-08T12:19:25.005Z,998.50
2018-03-08T12:20:24.959Z,998.36
2018-03-08T12:21:24.912Z,998.31
2018-03-08T12:22:24.867Z,998.28
2018-03-08T12:23:24.822Z,998.23
2018-03-08T12:24:24.776Z,998.22
2018-03-08T12:25:24.730Z,998.23
2018-03-08T12:26:24.683Z,998.23
2018-03-08T12:27:24.637Z,998.22
2018-03-08T12:28:24.592Z,998.22
2018-03-08T12:29:24.546Z,998.22
2018-03-08T12:30:24.499Z,998.19